createdAt,value
2022-12-12T00:04:36.772Z,14.25
2022-12-12T00:09:38.952Z,15.35
2022-12-12T00:14:41.054Z,16.90
2022-12-12T00:19:44.547Z,16.67
2022-12-12T00:24:47.806Z,17.08
2022-12-12T00:29:52.488Z,18.13
2022-12-12T00:34:56.027Z,17.50
2022-12-12T00:39:58.135Z,17.20
2022-12-12T00:45:00.307Z,16.38
2022-12-12T00:50:04.214Z,17.15
2022-12-12T00:55:07.111Z,17.58
2022-12-12T01:00:12.798Z,16.15
2022-12-12T01:05:17.340Z,16.17
2022-12-12T01:10:20.096Z,16.45
2022-12-12T01:15:22.529Z,18.77
2022-12-12T01:20:27.735Z,15.88
2022-12-12T01:25:30.043Z,18.05
2022-12-12T01:30:32.178Z,17.77
2022-12-12T01:35:35.798Z,17.30
2022-12-12T01:40:37.916Z,17.65
2022-12-12T01:46:28.388Z,17.20
2022-12-12T01:51:33.033Z,18.67
2022-12-12T01:56:36.384Z,17.73
2022-12-12T02:01:39.851Z,18.35
2022-12-12T02:06:43.897Z,19.23
2022-12-12T02:11:49.237Z,16.92
2022-12-12T02:17:43.579Z,17.55
2022-12-12T02:23:19.847Z,18.95
2022-12-12T02:29:22.232Z,19.38
2022-12-12T02:34:34.154Z,17.95
2022-12-12T02:39:45.321Z,19.65
2022-12-12T02:44:56.035Z,17.83
2022-12-12T02:50:04.881Z,19.25
2022-12-12T02:55:07.840Z,18.83
2022-12-12T03:00:12.687Z,17.75
2022-12-12T03:05:39.539Z,18.10
2022-12-12T03:10:51.081Z,17.45
2022-12-12T03:15:59.637Z,17.80
2022-12-12T03:21:06.817Z,17.77
2022-12-12T03:26:14.921Z,18.15
2022-12-12T03:31:23.824Z,18.15
2022-12-12T03:36:33.046Z,17.73
2022-12-12T03:41:40.684Z,17.55
2022-12-12T03:46:48.841Z,19.13
2022-12-12T03:51:58.915Z,19.55
2022-12-12T03:57:07.566Z,17.95
2022-12-12T04:02:16.669Z,19.70
2022-12-12T04:07:24.709Z,18.52
2022-12-12T04:12:35.074Z,17.25
2022-12-12T04:17:42.766Z,20.02
2022-12-12T04:22:52.369Z,19.63
2022-12-12T04:28:00.920Z,18.77
2022-12-12T04:33:09.301Z,20.05
2022-12-12T04:38:18.771Z,19.45
2022-12-12T04:43:25.973Z,17.50
2022-12-12T04:48:37.036Z,18.55
2022-12-12T04:53:48.720Z,25.13
2022-12-12T04:58:51.288Z,19.75
2022-12-12T05:03:57.645Z,19.10
2022-12-12T05:09:01.933Z,19.23
2022-12-12T05:14:04.012Z,18.70
2022-12-12T05:19:06.509Z,17.77
2022-12-12T05:24:10.412Z,17.20
2022-12-12T05:29:12.478Z,17.77
2022-12-12T05:34:14.617Z,19.48
2022-12-12T05:39:18.080Z,18.60
2022-12-12T05:44:21.440Z,19.15
2022-12-12T05:49:23.685Z,18.67
2022-12-12T05:54:27.177Z,19.73
2022-12-12T05:59:29.429Z,20.33
2022-12-12T06:04:31.571Z,16.40
2022-12-12T06:09:35.565Z,17.33
2022-12-12T06:14:37.677Z,16.90
2022-12-12T06:19:39.894Z,16.58
2022-12-12T06:24:43.711Z,18.70
2022-12-12T06:29:45.976Z,20.23
2022-12-12T06:34:48.158Z,18.92
2022-12-12T06:39:52.280Z,18.13
2022-12-12T06:44:54.508Z,19.92
2022-12-12T06:49:56.666Z,48.63
2022-12-12T06:55:00.445Z,20.23
2022-12-12T07:00:03.445Z,17.92
2022-12-12T07:05:06.094Z,19.98
2022-12-12T07:10:10.023Z,20.20
2022-12-12T07:15:16.349Z,20.48
2022-12-12T07:20:18.714Z,20.90
2022-12-12T07:25:22.289Z,20.27
2022-12-12T07:30:24.471Z,19.58
2022-12-12T07:35:26.780Z,20.40
2022-12-12T07:40:30.657Z,19.85
2022-12-12T07:45:33.404Z,19.08
2022-12-12T07:50:35.594Z,20.60
2022-12-12T07:55:40.189Z,20.90
2022-12-12T08:00:43.382Z,19.73
2022-12-12T08:05:45.575Z,19.45
2022-12-12T08:10:49.399Z,20.08
2022-12-12T08:15:52.213Z,20.13
2022-12-12T08:20:54.334Z,18.27
2022-12-12T08:25:57.828Z,20.08
2022-12-12T08:31:01.340Z,20.13
2022-12-12T08:36:12.279Z,21.15
2022-12-12T08:41:16.442Z,19.55
2022-12-12T08:46:20.188Z,19.98
2022-12-12T08:51:22.839Z,18.33
2022-12-12T08:56:26.739Z,20.38
2022-12-12T09:01:29.048Z,21.90
2022-12-12T09:06:31.239Z,20.63
2022-12-12T09:11:34.818Z,21.50
2022-12-12T09:16:37.269Z,20.10
2022-12-12T09:21:39.448Z,21.83
2022-12-12T09:26:42.937Z,24.20
2022-12-12T09:31:45.074Z,23.80
2022-12-12T09:36:47.339Z,24.05
2022-12-12T09:41:50.967Z,22.70
2022-12-12T09:46:56.412Z,21.80
2022-12-12T09:51:59.454Z,23.00
2022-12-12T09:57:17.387Z,21.27
2022-12-12T10:02:52.699Z,23.27
2022-12-12T10:08:04.819Z,20.77
2022-12-12T10:13:17.716Z,21.45
2022-12-12T10:18:26.989Z,20.67
2022-12-12T10:23:35.920Z,22.25
2022-12-12T10:28:39.583Z,21.88
2022-12-12T10:33:54.484Z,20.98
2022-12-12T10:39:12.062Z,20.98
2022-12-12T10:44:29.917Z,21.35
2022-12-12T10:49:33.848Z,20.83
2022-12-12T10:54:43.764Z,21.50
2022-12-12T10:59:49.009Z,22.70
2022-12-12T11:05:09.594Z,23.15
2022-12-12T11:10:29.214Z,22.05
2022-12-12T11:15:44.416Z,22.40
2022-12-12T11:20:49.905Z,23.25
2022-12-12T11:25:56.774Z,23.08
2022-12-12T11:31:04.319Z,24.63
2022-12-12T11:36:07.355Z,22.70
2022-12-12T11:41:11.678Z,25.00
2022-12-12T11:46:20.212Z,23.08
2022-12-12T11:51:35.435Z,31.83
2022-12-12T11:56:46.016Z,23.55
2022-12-12T12:02:00.028Z,26.52
2022-12-12T12:07:17.374Z,19.25
2022-12-12T12:12:25.010Z,24.77
2022-12-12T12:17:44.486Z,21.45
2022-12-12T12:22:57.246Z,22.13
2022-12-12T12:28:26.459Z,25.08
2022-12-12T12:33:55.751Z,23.55
2022-12-12T12:39:10.661Z,21.52
2022-12-12T12:44:27.844Z,24.08
2022-12-12T12:49:36.690Z,22.23
2022-12-12T12:54:40.875Z,21.83
2022-12-12T12:59:47.011Z,21.45
2022-12-12T13:04:57.162Z,20.20
2022-12-12T13:10:06.674Z,22.20
2022-12-12T13:15:19.901Z,23.02
2022-12-12T13:20:25.496Z,22.33
2022-12-12T13:25:36.166Z,22.85
2022-12-12T13:30:53.447Z,21.40
2022-12-12T13:36:05.815Z,22.00
2022-12-12T13:41:09.945Z,25.20
2022-12-12T13:46:40.695Z,21.92
2022-12-12T13:51:45.649Z,21.33
2022-12-12T13:57:05.090Z,21.13
2022-12-12T14:02:31.083Z,20.80
2022-12-12T14:07:35.552Z,20.73
2022-12-12T14:12:37.813Z,24.27
2022-12-12T14:17:42.948Z,22.80
2022-12-12T14:23:24.101Z,24.00
2022-12-12T14:28:29.014Z,20.50
2022-12-12T14:34:12.911Z,30.67
2022-12-12T14:39:25.661Z,38.85
2022-12-12T14:44:36.395Z,27.20
2022-12-12T14:49:41.311Z,45.67
2022-12-12T14:54:45.052Z,24.98
2022-12-12T14:59:47.730Z,28.63
2022-12-12T15:04:53.422Z,24.05
2022-12-12T15:09:57.151Z,23.70
2022-12-12T15:14:59.863Z,40.30
2022-12-12T15:20:04.831Z,27.65
2022-12-12T15:25:18.719Z,26.23
2022-12-12T15:30:46.059Z,28.85
2022-12-12T15:35:52.278Z,24.80
2022-12-12T15:40:59.488Z,26.38
2022-12-12T15:46:04.490Z,25.85
2022-12-12T15:51:07.392Z,36.33
2022-12-12T15:56:13.196Z,29.60
2022-12-12T16:01:21.113Z,37.88
2022-12-12T16:06:25.921Z,24.70
2022-12-12T16:11:41.370Z,27.25
2022-12-12T16:16:45.416Z,26.85
2022-12-12T16:21:47.527Z,27.13
2022-12-12T16:26:51.217Z,25.63
2022-12-12T16:31:53.445Z,27.58
2022-12-12T16:36:55.579Z,25.27
2022-12-12T16:41:59.256Z,25.52
2022-12-12T16:47:01.436Z,26.20
2022-12-12T16:52:03.732Z,25.83
2022-12-12T16:57:07.437Z,23.42
2022-12-12T17:02:19.417Z,29.88
2022-12-12T17:07:21.644Z,31.05
2022-12-12T17:12:25.139Z,28.40
2022-12-12T17:17:27.283Z,31.73
2022-12-12T17:22:29.912Z,30.05
2022-12-12T17:27:33.434Z,29.75
2022-12-12T17:32:36.323Z,27.90
2022-12-12T17:37:38.742Z,28.05
2022-12-12T17:42:42.769Z,30.35
2022-12-12T17:47:44.915Z,30.15
2022-12-12T17:52:47.075Z,29.67
2022-12-12T17:57:50.626Z,30.38
2022-12-12T18:02:52.760Z,26.02
2022-12-12T18:07:54.957Z,23.15
2022-12-12T18:12:58.644Z,27.92
2022-12-12T18:18:00.804Z,30.48
2022-12-12T18:23:02.972Z,28.50
2022-12-12T18:28:06.529Z,28.05
2022-12-12T18:33:09.503Z,28.52
2022-12-12T18:38:11.717Z,29.50
2022-12-12T18:43:15.267Z,24.67
2022-12-12T18:48:20.167Z,28.08
2022-12-12T18:53:22.932Z,27.33
2022-12-12T18:58:29.133Z,29.40
2022-12-12T19:03:31.376Z,30.25
2022-12-12T19:08:33.645Z,30.73
2022-12-12T19:13:38.272Z,29.70
2022-12-12T19:18:42.837Z,30.02
2022-12-12T19:23:45.589Z,28.85
2022-12-12T19:28:49.140Z,29.83
2022-12-12T19:33:51.776Z,31.60
2022-12-12T19:38:56.918Z,29.38
2022-12-12T19:44:02.441Z,40.25
2022-12-12T19:49:06.770Z,33.63
2022-12-12T19:54:13.329Z,29.80
2022-12-12T19:59:19.066Z,33.95
2022-12-12T20:04:22.869Z,30.92
2022-12-12T20:09:27.859Z,39.22
2022-12-12T20:14:34.165Z,33.67
2022-12-12T20:19:36.335Z,30.95
2022-12-12T20:24:38.651Z,32.08
2022-12-12T20:29:45.520Z,40.38
2022-12-12T20:34:48.205Z,30.52
2022-12-12T20:39:50.367Z,27.60
2022-12-12T20:44:53.946Z,30.45
2022-12-12T20:49:56.245Z,29.30
2022-12-12T20:54:58.406Z,30.45
2022-12-12T21:00:02.006Z,25.50
2022-12-12T21:05:04.524Z,32.90
2022-12-12T21:10:07.165Z,28.45
2022-12-12T21:15:11.442Z,26.40
2022-12-12T21:20:13.508Z,28.48
2022-12-12T21:25:15.909Z,32.40
2022-12-12T21:30:20.876Z,29.08
2022-12-12T21:35:23.033Z,26.92
2022-12-12T21:40:25.318Z,26.95
2022-12-12T21:45:28.882Z,26.25
2022-12-12T21:50:31.327Z,26.92
2022-12-12T21:55:36.450Z,25.67
2022-12-12T22:00:39.992Z,26.75
2022-12-12T22:05:42.045Z,22.73
2022-12-12T22:10:44.150Z,23.17
2022-12-12T22:15:57.239Z,27.67
2022-12-12T22:21:03.926Z,27.20
2022-12-12T22:26:14.304Z,26.25
2022-12-12T22:31:18.350Z,24.58
2022-12-12T22:36:24.875Z,26.85
2022-12-12T22:41:28.582Z,24.83
2022-12-12T22:46:33.243Z,23.73
2022-12-12T22:51:35.374Z,25.88
2022-12-12T22:56:38.372Z,26.45
2022-12-12T23:01:42.897Z,25.73
2022-12-12T23:06:45.550Z,28.48
2022-12-12T23:11:47.937Z,28.00
2022-12-12T23:16:52.008Z,24.58
2022-12-12T23:21:54.079Z,26.08
2022-12-12T23:26:56.276Z,25.67
2022-12-12T23:32:00.054Z,23.42
2022-12-12T23:37:02.201Z,27.17
2022-12-12T23:42:04.373Z,25.77
2022-12-12T23:47:07.864Z,26.20
2022-12-12T23:52:09.958Z,24.52
2022-12-12T23:57:12.060Z,23.65
